Time;durP1;ratioP1;P1;durP2;ratioP2;P2;SDS_P1;SDS_P2;PMS_P1;PMS_P2;Temp;Humidity;BMP_temperature;BMP_pressure;BME280_temperature;BME280_humidity;BME280_pressure;Samples;Min_cycle;Max_cycle;Signal;HPM_P1;HPM_P2
2022/12/18 00:01:51;;;;;;;31.40;12.77;;;;;-7.10;102072.00;;;;9832827;30;20220;-79
2022/12/18 00:06:53;;;;;;;30.63;11.70;;;;;-7.20;102076.00;;;;9798779;30;20724;-79
2022/12/18 00:11:54;;;;;;;30.23;12.93;;;;;-7.30;102068.00;;;;9825705;30;20284;-79
2022/12/18 00:17:00;;;;;;;29.47;13.13;;;;;-7.40;102072.00;;;;9832189;30;20330;-79
2022/12/18 00:22:02;;;;;;;30.70;12.60;;;;;-7.50;102070.00;;;;9846013;30;20220;-79
2022/12/18 00:27:04;;;;;;;33.47;13.90;;;;;-7.60;102065.00;;;;9839485;30;20207;-79
2022/12/18 00:32:06;;;;;;;37.03;15.63;;;;;-7.60;102047.00;;;;9839547;30;20188;-79
2022/12/18 00:37:08;;;;;;;22.97;10.57;;;;;-7.60;102042.00;;;;9853909;30;20254;-79
2022/12/18 00:47:30;;;;;;;28.43;14.17;;;;;-7.30;102032.00;;;;9816741;30;20288;-79
2022/12/18 00:52:32;;;;;;;23.50;11.53;;;;;-7.20;102035.00;;;;9811935;30;20307;-79
2022/12/18 00:57:34;;;;;;;31.47;13.27;;;;;-7.00;102031.00;;;;9841248;30;20207;-80
2022/12/18 01:02:38;;;;;;;25.03;11.57;;;;;-7.00;102030.00;;;;9839412;30;20224;-79
2022/12/18 01:07:41;;;;;;;20.97;11.43;;;;;-6.90;102025.00;;;;9852676;30;20256;-79
2022/12/18 01:12:43;;;;;;;28.47;12.80;;;;;-6.90;102030.00;;;;9831607;30;20209;-79
2022/12/18 01:17:45;;;;;;;23.90;13.73;;;;;-6.90;102021.00;;;;9822217;30;20204;-79
2022/12/18 01:22:47;;;;;;;25.93;12.57;;;;;-6.90;102017.00;;;;9831276;30;20255;-79
2022/12/18 01:27:49;;;;;;;32.33;14.03;;;;;-6.90;102032.00;;;;9839373;30;20197;-79
2022/12/18 01:32:51;;;;;;;25.13;12.53;;;;;-6.90;102035.00;;;;9814101;30;20733;-79
2022/12/18 01:37:56;;;;;;;23.23;10.80;;;;;-7.00;102017.00;;;;9820438;30;20212;-79
2022/12/18 01:42:58;;;;;;;23.87;12.20;;;;;-7.10;102011.00;;;;9866318;30;20637;-79
2022/12/18 01:48:04;;;;;;;26.40;10.70;;;;;-7.10;102022.00;;;;9825934;30;20656;-79
2022/12/18 01:53:13;;;;;;;25.10;11.50;;;;;-7.00;102020.00;;;;9850532;30;20271;-79
2022/12/18 01:58:16;;;;;;;25.17;12.27;;;;;-7.10;102025.00;;;;9836729;30;20201;-79
2022/12/18 02:03:18;;;;;;;20.90;10.20;;;;;-7.20;102033.00;;;;9834619;30;20221;-79
2022/12/18 02:08:39;;;;;;;19.73;10.43;;;;;-7.20;102043.00;;;;9825896;30;20236;-79
2022/12/18 02:13:58;;;;;;;27.90;12.83;;;;;-7.40;102042.00;;;;9812758;30;20209;-79
2022/12/18 02:19:06;;;;;;;26.83;11.50;;;;;-7.60;102047.00;;;;9813841;30;20201;-79
2022/12/18 02:24:24;;;;;;;29.53;13.07;;;;;-7.70;102028.00;;;;9828452;30;20279;-79
2022/12/18 02:29:34;;;;;;;26.30;12.00;;;;;-7.80;102020.00;;;;9825863;30;20903;-79
2022/12/18 02:34:39;;;;;;;23.23;10.93;;;;;-7.90;102002.00;;;;9813946;30;20210;-79
2022/12/18 02:39:48;;;;;;;17.67;9.53;;;;;-8.00;101998.00;;;;9822666;30;20231;-79
2022/12/18 02:44:51;;;;;;;26.83;11.70;;;;;-8.10;101988.00;;;;9808416;30;20360;-79
2022/12/18 02:49:58;;;;;;;20.23;9.50;;;;;-8.00;101996.00;;;;9833054;30;20197;-79
2022/12/18 02:55:27;;;;;;;17.67;8.50;;;;;-7.90;101992.00;;;;9846122;30;20264;-79
2022/12/18 03:00:51;;;;;;;24.90;11.10;;;;;-7.90;101996.00;;;;9826692;30;20213;-79
2022/12/18 03:06:00;;;;;;;19.47;10.23;;;;;-7.90;101999.00;;;;9844408;30;20248;-80
2022/12/18 03:11:12;;;;;;;20.93;10.13;;;;;-7.90;102000.00;;;;9836358;30;20207;-78
2022/12/18 03:16:25;;;;;;;24.07;10.93;;;;;-8.00;101974.00;;;;9850850;30;20208;-79
2022/12/18 03:21:42;;;;;;;23.63;8.20;;;;;-7.90;101972.00;;;;9851818;30;20278;-79
2022/12/18 03:26:46;;;;;;;21.03;9.73;;;;;-7.80;101975.00;;;;9836907;30;20212;-80
2022/12/18 03:31:54;;;;;;;22.53;10.00;;;;;-7.70;101970.00;;;;9835140;30;20541;-80
2022/12/18 03:36:57;;;;;;;24.40;10.07;;;;;-7.60;101978.00;;;;9849868;30;20204;-80
2022/12/18 03:42:13;;;;;;;17.57;9.17;;;;;-7.60;101983.00;;;;9841315;30;20213;-79
2022/12/18 03:47:36;;;;;;;22.20;9.47;;;;;-7.60;101989.00;;;;9852727;30;20200;-79
2022/12/18 03:52:50;;;;;;;26.43;10.83;;;;;-7.80;101971.00;;;;9849870;30;20180;-79
2022/12/18 03:57:54;;;;;;;22.47;10.33;;;;;-7.90;101962.00;;;;9833080;30;20204;-79
2022/12/18 04:03:01;;;;;;;22.30;9.77;;;;;-8.00;101956.00;;;;9844139;30;20208;-79
2022/12/18 04:08:10;;;;;;;18.47;9.93;;;;;-8.10;101946.00;;;;9798825;30;20299;-79
2022/12/18 04:13:33;;;;;;;20.20;10.80;;;;;-8.20;101952.00;;;;9837557;30;20227;-79
2022/12/18 04:18:37;;;;;;;22.03;9.57;;;;;-8.40;101957.00;;;;9791982;30;20295;-79
2022/12/18 04:23:39;;;;;;;21.90;9.37;;;;;-8.50;101958.00;;;;9797081;30;20218;-80
2022/12/18 04:28:42;;;;;;;24.37;9.07;;;;;-8.60;101975.00;;;;9848022;30;20695;-79
2022/12/18 04:33:44;;;;;;;14.77;8.40;;;;;-8.70;101978.00;;;;9806580;30;20665;-79
2022/12/18 04:38:47;;;;;;;22.97;9.57;;;;;-8.70;101977.00;;;;9836540;30;20208;-79
2022/12/18 04:43:52;;;;;;;24.50;8.17;;;;;-8.80;101973.00;;;;9845776;30;20208;-79
2022/12/18 04:48:53;;;;;;;20.13;8.53;;;;;-8.80;101975.00;;;;9830276;30;20212;-79
2022/12/18 04:53:55;;;;;;;21.40;10.87;;;;;-8.90;101973.00;;;;9833112;30;20204;-79
2022/12/18 04:58:57;;;;;;;17.30;9.80;;;;;-8.80;101986.00;;;;9833041;30;20208;-80
2022/12/18 05:03:59;;;;;;;20.60;10.87;;;;;-8.80;101968.00;;;;9818557;30;20232;-80
2022/12/18 05:09:01;;;;;;;26.60;10.57;;;;;-8.80;101971.00;;;;9820807;30;20216;-79
2022/12/18 05:14:03;;;;;;;15.50;7.33;;;;;-8.80;101961.00;;;;9854849;30;20208;-79
2022/12/18 05:19:05;;;;;;;17.77;9.07;;;;;-8.80;101968.00;;;;9840880;30;20208;-79
2022/12/18 05:24:07;;;;;;;19.03;9.03;;;;;-8.80;101957.00;;;;9868081;30;20213;-79
2022/12/18 05:29:12;;;;;;;14.53;7.80;;;;;-8.80;101948.00;;;;9838682;30;20615;-80
2022/12/18 05:34:14;;;;;;;23.17;9.97;;;;;-8.70;101957.00;;;;9824174;30;20200;-80
2022/12/18 05:39:16;;;;;;;27.33;10.53;;;;;-8.60;101956.00;;;;9833134;30;20215;-80
2022/12/18 05:44:18;;;;;;;14.87;6.80;;;;;-8.50;101939.00;;;;9802178;30;20240;-80
2022/12/18 05:49:20;;;;;;;11.93;6.30;;;;;-8.30;101942.00;;;;9803215;30;20204;-80
2022/12/18 05:54:22;;;;;;;20.63;9.50;;;;;-8.10;101943.00;;;;9819496;30;20224;-79
2022/12/18 05:59:24;;;;;;;20.60;8.50;;;;;-8.00;101945.00;;;;9839419;30;20208;-80
2022/12/18 06:04:28;;;;;;;18.87;7.93;;;;;-8.00;101943.00;;;;9827840;30;20286;-79
2022/12/18 06:09:30;;;;;;;13.53;7.37;;;;;-7.90;101956.00;;;;9845530;30;20200;-80
2022/12/18 06:14:32;;;;;;;15.10;7.07;;;;;-7.90;101951.00;;;;9816048;30;20194;-80
2022/12/18 06:19:34;;;;;;;24.50;9.00;;;;;-7.90;101941.00;;;;9851255;30;20318;-80
2022/12/18 06:24:36;;;;;;;19.40;9.37;;;;;-7.80;101949.00;;;;9852295;30;20266;-79
2022/12/18 06:29:38;;;;;;;17.40;8.80;;;;;-7.90;101942.00;;;;9868335;30;20240;-80
2022/12/18 06:34:40;;;;;;;19.10;9.37;;;;;-7.90;101942.00;;;;9838579;30;20204;-79
2022/12/18 06:39:41;;;;;;;15.90;8.73;;;;;-7.90;101942.00;;;;9866842;30;20264;-80
2022/12/18 06:44:43;;;;;;;18.33;10.83;;;;;-7.90;101937.00;;;;9816708;30;20225;-80
2022/12/18 06:49:45;;;;;;;13.30;7.47;;;;;-7.90;101929.00;;;;9828924;30;20208;-79
2022/12/18 06:54:47;;;;;;;20.40;10.07;;;;;-7.90;101925.00;;;;9851409;30;20654;-80
2022/12/18 06:59:49;;;;;;;17.27;7.83;;;;;-7.90;101911.00;;;;9851479;30;20634;-80
2022/12/18 07:04:51;;;;;;;14.90;7.83;;;;;-7.90;101902.00;;;;9842437;30;20240;-80
2022/12/18 07:09:53;;;;;;;15.73;8.17;;;;;-7.70;101883.00;;;;9835593;30;20584;-80
2022/12/18 07:14:55;;;;;;;13.00;7.60;;;;;-7.50;101882.00;;;;9851369;30;20266;-79
2022/12/18 07:19:57;;;;;;;12.17;6.97;;;;;-7.30;101859.00;;;;9814866;30;20212;-80
2022/12/18 07:24:58;;;;;;;17.27;7.77;;;;;-7.30;101869.00;;;;9829267;30;20307;-80
2022/12/18 07:30:00;;;;;;;15.53;8.03;;;;;-7.30;101874.00;;;;9855115;30;20205;-80
2022/12/18 07:35:02;;;;;;;13.03;8.23;;;;;-7.30;101863.00;;;;9850531;30;20209;-80
2022/12/18 07:40:05;;;;;;;15.13;7.80;;;;;-7.40;101843.00;;;;9837346;30;20208;-79
2022/12/18 07:45:08;;;;;;;24.97;9.67;;;;;-7.40;101836.00;;;;9816559;30;20268;-80
2022/12/18 07:50:10;;;;;;;18.93;9.20;;;;;-7.40;101828.00;;;;9850673;30;20212;-80
2022/12/18 07:55:12;;;;;;;10.17;7.17;;;;;-7.30;101818.00;;;;9831625;30;20196;-80
2022/12/18 08:00:14;;;;;;;11.67;5.70;;;;;-7.30;101824.00;;;;9802734;30;20205;-80
2022/12/18 08:05:17;;;;;;;15.47;6.77;;;;;-7.20;101833.00;;;;9844122;30;20237;-80
2022/12/18 08:10:20;;;;;;;18.13;8.40;;;;;-7.10;101830.00;;;;9847948;30;20200;-80
2022/12/18 08:15:22;;;;;;;16.70;9.03;;;;;-7.00;101838.00;;;;9813623;30;20209;-80
2022/12/18 08:20:23;;;;;;;23.20;8.77;;;;;-6.80;101827.00;;;;9800248;30;20205;-80
2022/12/18 08:25:25;;;;;;;17.77;9.33;;;;;-6.60;101827.00;;;;9843820;30;20227;-80
2022/12/18 08:30:27;;;;;;;15.90;9.07;;;;;-6.30;101812.00;;;;9837289;30;20204;-80
2022/12/18 08:35:29;;;;;;;11.10;7.23;;;;;-6.10;101800.00;;;;9815530;30;20193;-80
2022/12/18 08:40:38;;;;;;;13.30;6.50;;;;;-5.80;101819.00;;;;9826984;30;20253;-79
2022/12/18 08:45:40;;;;;;;9.20;5.03;;;;;-5.50;101823.00;;;;9827020;30;20205;-80
2022/12/18 08:50:42;;;;;;;15.27;7.07;;;;;-5.10;101807.00;;;;9841913;30;20247;-80
2022/12/18 08:55:44;;;;;;;15.73;7.97;;;;;-4.80;101809.00;;;;9829956;30;20242;-80
2022/12/18 09:00:51;;;;;;;9.90;6.30;;;;;-4.60;101810.00;;;;9853209;30;20820;-79
2022/12/18 09:05:52;;;;;;;12.33;7.10;;;;;-4.30;101806.00;;;;9824708;30;20586;-80
2022/12/18 09:10:55;;;;;;;11.63;6.83;;;;;-4.10;101811.00;;;;9812774;30;20236;-79
2022/12/18 09:15:56;;;;;;;16.90;8.03;;;;;-3.90;101801.00;;;;9822322;30;20212;-79
2022/12/18 09:20:58;;;;;;;11.80;6.30;;;;;-3.70;101795.00;;;;9836234;30;20635;-80
2022/12/18 09:26:00;;;;;;;11.97;6.57;;;;;-3.60;101798.00;;;;9814001;30;20588;-79
2022/12/18 09:31:08;;;;;;;16.27;7.03;;;;;-3.50;101800.00;;;;9824498;30;20244;-80
2022/12/18 09:36:13;;;;;;;13.90;7.30;;;;;-3.30;101791.00;;;;9804690;30;20331;-80
2022/12/18 09:41:39;;;;;;;13.30;7.30;;;;;-3.20;101795.00;;;;9833815;30;20227;-80
2022/12/18 09:46:47;;;;;;;11.23;6.50;;;;;-3.10;101793.00;;;;9832507;30;20208;-80
2022/12/18 09:51:54;;;;;;;12.33;7.40;;;;;-2.90;101787.00;;;;9843150;30;20231;-80
2022/12/18 09:56:56;;;;;;;11.00;7.07;;;;;-2.80;101800.00;;;;9838809;30;20197;-80
2022/12/18 10:01:58;;;;;;;11.20;6.97;;;;;-2.60;101791.00;;;;9829357;30;20613;-80
2022/12/18 10:07:13;;;;;;;12.43;6.87;;;;;-2.50;101799.00;;;;9803731;30;20224;-80
2022/12/18 10:12:25;;;;;;;14.17;7.60;;;;;-2.30;101773.00;;;;9813872;30;20276;-81
2022/12/18 10:17:49;;;;;;;11.73;7.03;;;;;-2.20;101763.00;;;;9819763;30;20227;-80
2022/12/18 10:23:14;;;;;;;14.77;8.53;;;;;-2.10;101757.00;;;;9817999;30;20217;-80
2022/12/18 10:28:19;;;;;;;15.80;7.43;;;;;-2.00;101739.00;;;;9805368;30;20212;-80
2022/12/18 10:33:24;;;;;;;11.73;7.13;;;;;-2.00;101729.00;;;;9797269;30;20205;-81
2022/12/18 10:38:31;;;;;;;16.50;7.53;;;;;-1.90;101732.00;;;;9836085;30;20223;-80
2022/12/18 10:43:36;;;;;;;14.30;8.67;;;;;-1.80;101725.00;;;;9830291;30;20700;-79
2022/12/18 10:48:52;;;;;;;16.53;7.80;;;;;-1.70;101716.00;;;;9805014;30;20209;-80
2022/12/18 10:54:16;;;;;;;19.57;8.47;;;;;-1.50;101712.00;;;;9821518;30;20219;-80
2022/12/18 10:59:18;;;;;;;17.53;8.80;;;;;-1.30;101714.00;;;;9830149;30;20223;-80
2022/12/18 11:04:27;;;;;;;18.27;9.00;;;;;-1.10;101722.00;;;;9825436;30;20231;-79
2022/12/18 11:09:32;;;;;;;18.97;10.80;;;;;-0.90;101724.00;;;;9804843;30;20299;-81
2022/12/18 11:14:43;;;;;;;19.50;9.97;;;;;-0.80;101722.00;;;;9812604;30;20251;-81
2022/12/18 11:20:03;;;;;;;24.00;11.03;;;;;-0.70;101731.00;;;;9830013;30;20652;-81
2022/12/18 11:25:25;;;;;;;19.07;11.27;;;;;-0.70;101734.00;;;;9804108;30;20208;-80
2022/12/18 11:30:36;;;;;;;20.93;11.63;;;;;-0.60;101733.00;;;;9816207;30;20240;-79
2022/12/18 11:35:44;;;;;;;15.90;8.43;;;;;-0.60;101724.00;;;;9793715;30;20661;-80
2022/12/18 11:41:02;;;;;;;17.53;10.30;;;;;-0.60;101717.00;;;;9793993;30;20217;-80
2022/12/18 11:46:08;;;;;;;21.13;9.20;;;;;-0.60;101734.00;;;;9818070;30;20214;-80
2022/12/18 11:51:31;;;;;;;16.13;9.07;;;;;-0.60;101739.00;;;;9826409;30;20291;-80
2022/12/18 11:56:36;;;;;;;19.80;10.43;;;;;-0.50;101739.00;;;;9810756;30;20674;-80
2022/12/18 12:01:50;;;;;;;24.90;12.07;;;;;-0.50;101738.00;;;;9827523;30;20232;-81
2022/12/18 12:07:17;;;;;;;17.40;9.03;;;;;-0.30;101724.00;;;;9816636;30;20236;-79
2022/12/18 12:12:19;;;;;;;18.60;9.30;;;;;-0.20;101714.00;;;;9793457;30;20299;-81
2022/12/18 12:17:50;;;;;;;18.80;9.63;;;;;-0.10;101694.00;;;;9833138;30;20708;-80
2022/12/18 12:23:05;;;;;;;16.70;9.87;;;;;-0.10;101690.00;;;;9793445;30;20805;-81
2022/12/18 12:28:34;;;;;;;17.87;9.70;;;;;-0.10;101680.00;;;;9813958;30;20211;-80
2022/12/18 12:33:55;;;;;;;17.80;9.77;;;;;0.00;101685.00;;;;9785254;30;20212;-80
2022/12/18 12:39:06;;;;;;;20.00;12.20;;;;;0.10;101682.00;;;;9805548;30;20207;-80
2022/12/18 12:44:14;;;;;;;19.70;11.30;;;;;0.20;101683.00;;;;9820498;30;20231;-80
2022/12/18 12:49:24;;;;;;;21.10;11.47;;;;;0.30;101671.00;;;;9816413;30;20252;-79
2022/12/18 12:54:27;;;;;;;21.77;12.37;;;;;0.40;101660.00;;;;9825352;30;20205;-80
2022/12/18 12:59:50;;;;;;;24.13;13.00;;;;;0.50;101661.00;;;;9809873;30;20205;-81
2022/12/18 13:05:01;;;;;;;19.07;11.67;;;;;0.60;101655.00;;;;9793416;30;20319;-80
2022/12/18 13:10:25;;;;;;;25.93;12.53;;;;;0.70;101656.00;;;;9817920;30;20204;-81
2022/12/18 13:15:50;;;;;;;22.40;12.10;;;;;0.70;101653.00;;;;9795103;30;20248;-80
2022/12/18 13:20:58;;;;;;;25.70;11.93;;;;;0.80;101639.00;;;;9808893;30;20208;-80
2022/12/18 13:26:10;;;;;;;22.87;13.53;;;;;0.80;101641.00;;;;9810910;30;20224;-81
2022/12/18 13:31:31;;;;;;;21.50;11.90;;;;;0.80;101630.00;;;;9807057;30;20223;-80
2022/12/18 13:36:33;;;;;;;28.33;13.70;;;;;0.80;101625.00;;;;9827325;30;20322;-80
2022/12/18 13:41:37;;;;;;;23.77;12.77;;;;;0.70;101617.00;;;;9819040;30;20695;-81
2022/12/18 13:46:44;;;;;;;24.27;13.17;;;;;0.70;101602.00;;;;9803314;30;20222;-81
2022/12/18 13:51:57;;;;;;;25.10;12.80;;;;;0.70;101601.00;;;;9795724;30;20228;-81
2022/12/18 13:56:59;;;;;;;18.20;10.50;;;;;0.70;101615.00;;;;9824635;30;20234;-80
2022/12/18 14:02:13;;;;;;;23.30;11.97;;;;;0.70;101623.00;;;;9812271;30;20220;-80
2022/12/18 14:07:25;;;;;;;24.07;12.67;;;;;0.70;101623.00;;;;9799569;30;20235;-80
2022/12/18 14:18:20;;;;;;;27.23;11.77;;;;;0.60;101616.00;;;;9841996;30;20196;-80
2022/12/18 14:23:31;;;;;;;26.90;12.20;;;;;0.50;101626.00;;;;9815898;30;20304;-80
2022/12/18 14:28:33;;;;;;;21.63;10.70;;;;;0.50;101637.00;;;;9824577;30;20289;-81
2022/12/18 14:33:37;;;;;;;19.77;11.00;;;;;0.40;101626.00;;;;9810608;30;20291;-81
2022/12/18 14:38:40;;;;;;;20.67;11.57;;;;;0.40;101621.00;;;;9842359;30;20304;-80
2022/12/18 14:43:44;;;;;;;25.90;11.80;;;;;0.30;101598.00;;;;9822386;30;20684;-80
2022/12/18 14:48:47;;;;;;;30.77;14.50;;;;;0.30;101596.00;;;;9810954;30;20221;-80
2022/12/18 14:54:13;;;;;;;27.30;13.30;;;;;0.20;101587.00;;;;9840209;30;20204;-79
2022/12/18 14:59:22;;;;;;;27.77;12.53;;;;;0.10;101574.00;;;;9836163;30;20215;-79
2022/12/18 15:04:34;;;;;;;23.47;13.33;;;;;0.10;101572.00;;;;9807929;30;20228;-80
2022/12/18 15:09:37;;;;;;;26.80;13.17;;;;;0.10;101571.00;;;;9824559;30;20212;-80
2022/12/18 15:14:41;;;;;;;26.90;12.97;;;;;0.00;101573.00;;;;9816496;30;20197;-80
2022/12/18 15:19:45;;;;;;;27.83;13.50;;;;;-0.10;101558.00;;;;9828842;30;20213;-80
2022/12/18 15:24:47;;;;;;;26.13;12.27;;;;;-0.10;101566.00;;;;9805665;30;20604;-80
2022/12/18 15:30:07;;;;;;;27.03;13.03;;;;;-0.10;101552.00;;;;9797468;30;20348;-80
2022/12/18 15:35:22;;;;;;;28.77;12.87;;;;;-0.10;101551.00;;;;9845444;30;20212;-79
2022/12/18 15:40:24;;;;;;;29.23;13.73;;;;;-0.20;101552.00;;;;9831340;30;20266;-80
2022/12/18 15:45:27;;;;;;;32.73;14.07;;;;;-0.20;101551.00;;;;9829046;30;20704;-80
2022/12/18 15:50:30;;;;;;;35.07;15.17;;;;;-0.20;101550.00;;;;9802412;30;20200;-80
2022/12/18 16:00:58;;;;;;;28.57;13.70;;;;;-0.10;101547.00;;;;9821815;30;20197;-80
2022/12/18 16:06:01;;;;;;;25.27;13.47;;;;;-0.10;101545.00;;;;9830276;30;20237;-80
2022/12/18 16:11:08;;;;;;;29.37;13.57;;;;;-0.10;101539.00;;;;9817190;30;20256;-80
2022/12/18 16:16:10;;;;;;;26.00;14.07;;;;;-0.10;101528.00;;;;9826030;30;20238;-80
2022/12/18 16:21:12;;;;;;;25.10;13.17;;;;;-0.10;101532.00;;;;9816272;30;20276;-80
2022/12/18 16:26:14;;;;;;;30.30;14.70;;;;;0.00;101531.00;;;;9828693;30;20313;-81
2022/12/18 16:31:16;;;;;;;28.17;12.93;;;;;0.00;101538.00;;;;9815180;30;20906;-81
2022/12/18 16:36:17;;;;;;;28.77;13.13;;;;;0.00;101530.00;;;;9834786;30;20200;-80
2022/12/18 16:41:31;;;;;;;30.00;13.33;;;;;0.00;101518.00;;;;9815733;30;20576;-80
2022/12/18 16:46:33;;;;;;;29.37;13.97;;;;;0.00;101510.00;;;;9792191;30;20250;-79
2022/12/18 16:51:35;;;;;;;24.10;12.13;;;;;0.10;101516.00;;;;9832319;30;20981;-79
2022/12/18 16:56:38;;;;;;;27.30;13.17;;;;;0.10;101500.00;;;;9818385;30;20216;-80
2022/12/18 17:01:40;;;;;;;28.13;13.70;;;;;0.10;101494.00;;;;9801373;30;20239;-79
2022/12/18 17:06:44;;;;;;;28.57;14.67;;;;;0.10;101501.00;;;;9819975;30;20592;-79
2022/12/18 17:11:46;;;;;;;27.90;13.73;;;;;0.20;101500.00;;;;9839452;30;20223;-81
2022/12/18 17:16:48;;;;;;;25.50;11.90;;;;;0.20;101488.00;;;;9820681;30;20200;-79
2022/12/18 17:22:10;;;;;;;29.43;14.10;;;;;0.20;101494.00;;;;9815542;30;20220;-80
2022/12/18 17:27:12;;;;;;;30.47;14.30;;;;;0.20;101491.00;;;;9826726;30;20197;-78
2022/12/18 17:32:15;;;;;;;24.00;13.20;;;;;0.30;101495.00;;;;9827217;30;20212;-79
2022/12/18 17:37:17;;;;;;;29.00;13.80;;;;;0.30;101491.00;;;;9831415;30;20200;-79
2022/12/18 17:42:20;;;;;;;25.30;12.33;;;;;0.30;101492.00;;;;9834906;30;20220;-79
2022/12/18 17:47:22;;;;;;;22.57;12.13;;;;;0.30;101492.00;;;;9807012;30;20213;-80
2022/12/18 17:52:24;;;;;;;30.87;15.03;;;;;0.30;101500.00;;;;9814097;30;20197;-77
2022/12/18 17:57:26;;;;;;;27.93;12.37;;;;;0.20;101507.00;;;;9819401;30;20204;-80
2022/12/18 18:02:28;;;;;;;25.60;11.30;;;;;0.10;101506.00;;;;9828216;30;20224;-78
2022/12/18 18:07:31;;;;;;;26.33;11.53;;;;;0.10;101505.00;;;;9829604;30;20282;-79
2022/12/18 18:17:53;;;;;;;27.87;13.27;;;;;0.10;101510.00;;;;9828407;30;20209;-81
2022/12/18 18:22:55;;;;;;;24.37;11.83;;;;;0.10;101506.00;;;;9788530;30;20237;-81
2022/12/18 18:27:57;;;;;;;29.37;11.50;;;;;0.00;101505.00;;;;9808352;30;20281;-81
2022/12/18 18:32:59;;;;;;;26.97;12.17;;;;;0.00;101510.00;;;;9808306;30;20288;-80
2022/12/18 18:38:03;;;;;;;25.90;12.43;;;;;0.00;101500.00;;;;9822036;30;20211;-80
2022/12/18 18:43:05;;;;;;;27.07;12.33;;;;;0.00;101502.00;;;;9793326;30;20219;-81
2022/12/18 18:48:07;;;;;;;28.23;12.67;;;;;0.00;101507.00;;;;9828671;30;20255;-80
2022/12/18 18:53:09;;;;;;;24.97;11.13;;;;;0.00;101512.00;;;;9806443;30;20746;-80
2022/12/18 18:58:11;;;;;;;25.70;12.30;;;;;0.00;101514.00;;;;9813133;30;20306;-82
2022/12/18 19:03:13;;;;;;;30.37;14.03;;;;;0.00;101524.00;;;;9810065;30;20216;-81
2022/12/18 19:08:15;;;;;;;30.10;13.03;;;;;0.00;101519.00;;;;9802337;30;20233;-79
2022/12/18 19:13:19;;;;;;;29.63;13.23;;;;;0.00;101524.00;;;;9796031;30;20204;-79
2022/12/18 19:18:22;;;;;;;30.20;12.63;;;;;0.10;101511.00;;;;9821731;30;20197;-80
2022/12/18 19:23:24;;;;;;;27.63;12.37;;;;;0.10;101510.00;;;;9832586;30;20247;-80
2022/12/18 19:28:27;;;;;;;25.60;13.07;;;;;0.10;101507.00;;;;9818444;30;20263;-80
2022/12/18 19:33:35;;;;;;;24.37;11.20;;;;;0.20;101515.00;;;;9825624;30;20210;-81
2022/12/18 19:38:46;;;;;;;30.27;13.27;;;;;0.20;101502.00;;;;9801417;30;20287;-79
2022/12/18 19:43:49;;;;;;;30.93;13.00;;;;;0.30;101495.00;;;;9789451;30;20217;-78
2022/12/18 19:48:52;;;;;;;22.63;11.73;;;;;0.30;101500.00;;;;9801884;30;20220;-79
2022/12/18 19:53:55;;;;;;;28.97;12.37;;;;;0.30;101493.00;;;;9823036;30;20216;-78
2022/12/18 19:59:03;;;;;;;25.50;12.33;;;;;0.30;101490.00;;;;9838757;30;20617;-78
2022/12/18 20:04:04;;;;;;;29.27;14.30;;;;;0.40;101478.00;;;;9801217;30;20224;-79
2022/12/18 20:09:08;;;;;;;29.20;13.17;;;;;0.40;101478.00;;;;9814692;30;20239;-78
2022/12/18 20:14:12;;;;;;;30.00;11.93;;;;;0.40;101470.00;;;;9820555;30;20216;-80
2022/12/18 20:19:14;;;;;;;26.17;11.57;;;;;0.40;101472.00;;;;9810715;30;20572;-79
2022/12/18 20:24:17;;;;;;;33.87;14.10;;;;;0.40;101462.00;;;;9825226;30;20253;-79
2022/12/18 20:29:18;;;;;;;24.63;12.80;;;;;0.50;101467.00;;;;9808835;30;20665;-78
2022/12/18 20:34:20;;;;;;;27.83;13.20;;;;;0.50;101461.00;;;;9802799;30;20209;-79
2022/12/18 20:39:25;;;;;;;28.27;11.90;;;;;0.50;101444.00;;;;9826941;30;20201;-77
2022/12/18 20:44:28;;;;;;;27.87;11.73;;;;;0.60;101441.00;;;;9821787;30;20212;-77
2022/12/18 20:49:29;;;;;;;28.17;13.13;;;;;0.60;101427.00;;;;9808325;30;20212;-78
2022/12/18 20:54:31;;;;;;;27.37;14.37;;;;;0.70;101418.00;;;;9828193;30;20196;-78
2022/12/18 20:59:33;;;;;;;26.63;13.30;;;;;0.70;101399.00;;;;9792306;30;20669;-79
2022/12/18 21:04:35;;;;;;;25.43;13.27;;;;;0.70;101398.00;;;;9835240;30;20232;-78
2022/12/18 21:09:37;;;;;;;24.83;12.33;;;;;0.80;101377.00;;;;9830018;30;20209;-78
2022/12/18 21:14:39;;;;;;;29.30;11.13;;;;;0.80;101370.00;;;;9819021;30;20203;-77
2022/12/18 21:19:41;;;;;;;23.33;11.37;;;;;0.90;101378.00;;;;9807720;30;20208;-78
2022/12/18 21:24:43;;;;;;;30.77;14.07;;;;;0.90;101355.00;;;;9819737;30;20224;-78
2022/12/18 21:29:48;;;;;;;23.47;10.77;;;;;1.00;101344.00;;;;9805376;30;20208;-77
2022/12/18 21:34:52;;;;;;;24.20;12.00;;;;;1.00;101344.00;;;;9814942;30;20288;-78
2022/12/18 21:39:54;;;;;;;26.30;11.50;;;;;1.10;101321.00;;;;9805124;30;20208;-79
2022/12/18 21:44:56;;;;;;;32.00;12.40;;;;;1.10;101326.00;;;;9817652;30;20224;-78
2022/12/18 21:49:58;;;;;;;23.33;11.00;;;;;1.20;101328.00;;;;9842180;30;20204;-79
2022/12/18 21:55:00;;;;;;;29.03;11.97;;;;;1.20;101304.00;;;;9810921;30;20227;-78
2022/12/18 22:00:12;;;;;;;25.30;12.23;;;;;1.30;101300.00;;;;9815893;30;20212;-78
2022/12/18 22:05:20;;;;;;;24.80;12.90;;;;;1.30;101285.00;;;;9809416;30;20239;-78
2022/12/18 22:10:21;;;;;;;24.97;10.07;;;;;1.40;101278.00;;;;9806738;30;20208;-79
2022/12/18 22:15:23;;;;;;;25.80;11.80;;;;;1.40;101298.00;;;;9812318;30;20230;-78
2022/12/18 22:20:25;;;;;;;25.83;12.03;;;;;1.40;101290.00;;;;9823376;30;20271;-78
2022/12/18 22:25:27;;;;;;;27.67;11.07;;;;;1.50;101283.00;;;;9815946;30;20236;-78
2022/12/18 22:30:29;;;;;;;23.17;10.77;;;;;1.50;101284.00;;;;9837342;30;20283;-79
2022/12/18 22:35:31;;;;;;;21.67;11.77;;;;;1.60;101263.00;;;;9822536;30;20207;-78
2022/12/18 22:40:33;;;;;;;25.17;11.30;;;;;1.60;101267.00;;;;9819436;30;20205;-78
2022/12/18 22:45:35;;;;;;;22.20;10.63;;;;;1.60;101253.00;;;;9813187;30;20299;-78
2022/12/18 22:50:39;;;;;;;26.03;11.03;;;;;1.70;101257.00;;;;9825676;30;20208;-78
2022/12/18 22:55:41;;;;;;;26.60;10.83;;;;;1.80;101246.00;;;;9807218;30;20307;-78
2022/12/18 23:00:43;;;;;;;20.43;10.60;;;;;1.80;101245.00;;;;9821662;30;20205;-79
2022/12/18 23:05:46;;;;;;;23.17;10.83;;;;;1.90;101225.00;;;;9822410;30;20228;-78
2022/12/18 23:10:51;;;;;;;21.67;10.17;;;;;2.00;101238.00;;;;9838106;30;20215;-77
2022/12/18 23:15:54;;;;;;;22.77;11.10;;;;;2.10;101236.00;;;;9829879;30;20200;-78
2022/12/18 23:20:56;;;;;;;26.63;11.77;;;;;2.10;101229.00;;;;9802290;30;20618;-77
2022/12/18 23:26:07;;;;;;;20.37;10.10;;;;;2.20;101230.00;;;;9810626;30;20636;-77
2022/12/18 23:31:15;;;;;;;21.13;10.57;;;;;2.30;101186.00;;;;9819878;30;20212;-78
2022/12/18 23:36:19;;;;;;;20.20;9.37;;;;;2.40;101164.00;;;;9817562;30;20572;-79
2022/12/18 23:41:23;;;;;;;22.03;10.10;;;;;2.40;101162.00;;;;9828804;30;20201;-78
2022/12/18 23:46:33;;;;;;;18.13;9.30;;;;;2.50;101166.00;;;;9838166;30;20220;-77
2022/12/18 23:51:35;;;;;;;22.60;10.50;;;;;2.70;101163.00;;;;9840394;30;20346;-78
2022/12/18 23:56:38;;;;;;;27.63;10.10;;;;;2.80;101168.00;;;;9802037;30;20211;-79
